• Join FlightAware (Why Join?)
  • Login
  • US Flag 
12:23AM EST


 

Airport Tracker/Info


-or-


 

Live Flight TrackerFlight Track Log ✈ NKS298 ✈ 28-Jun-2013 ✈ KLAS - KIAH

Flight Track Log - Related Links

Times and Time Zones

All times are in EDT time to prevent confusion due to time zone crossing. See the NKS298 flight status page for this flight to view local times or setup timezone preferences in your user account.

Time Position Orientation Groundspeed Altitude Reporting Facility
EDT Latitude Longitude Course Direction KTS MPH feet Rate Location/Type
05:06AM 36.0770 -115.1210 163° South 17 20  Level FlightAware
05:07AM 36.0760 -115.1230 238° Southwest 33 38 1,406 Level FlightAware
05:08AM 36.0760 -115.1320 270° West 125 144 3,000 Level FlightAware
05:08AM 36.0760 -115.1700 270° West 169 194 3,000 3,250 Climbing FlightAware
05:09AM 36.0750 -115.2000 268° West 181 208 3,900 1,286 Climbing FlightAware
05:09AM 36.0760 -115.2270 273° West 202 232 4,200 889 Climbing FlightAware
05:10AM 36.0620 -115.2600 242° Southwest 241 277 4,700 1,091 Climbing FlightAware
05:10AM 36.0470 -115.2670 201° Southwest 255 293 5,000 1,385 Climbing FlightAware
05:10AM 36.0330 -115.2730 199° South 268 308 5,300 2,182 Climbing FlightAware
05:11AM 35.9670 -115.2990 198° South 290 334 7,400 2,400 Climbing FlightAware
05:12AM 35.9270 -115.2860 165° South 295 339 8,700 2,553 Climbing FlightAware
05:12AM 35.9070 -115.2770 160° South 295 339 9,400 2,533 Climbing FlightAware
05:12AM 35.8710 -115.2560 155° Southeast 301 346 10,600 2,108 Climbing FlightAware
05:13AM 35.8640 -115.2450 128° Southeast 309 356 10,700 1,071 Climbing FlightAware
05:13AM 35.8540 -115.2110 110° East 329 379 11,100 1,400 Climbing FlightAware
05:14AM 35.8360 -115.1360 106° East 354 407 12,100 1,870 Climbing FlightAware
05:14AM 35.8220 -115.0640 103° East 361 415 13,500 2,286 Climbing FlightAware
05:15AM 35.8320 -114.9640 83° East 370 426 15,300 2,047 Climbing FlightAware
05:16AM 35.8390 -114.8840 84° East 380 437 16,400 1,814 Climbing FlightAware
05:16AM 35.8490 -114.7780 83° East 390 449 17,900 2,045 Climbing FlightAware
05:17AM 35.8560 -114.6930 84° East 389 448 19,400 1,756 Climbing FlightAware
05:18AM 35.8650 -114.5960 83° East 406 467 20,300 1,643 Climbing FlightAware
05:18AM 35.8730 -114.5000 84° East 406 467 21,700 1,756 Climbing FlightAware
05:19AM 35.8810 -114.4080 84° East 413 475 22,700 1,429 Climbing FlightAware
05:20AM 35.8900 -114.3020 84° East 425 489 23,700 1,500 Climbing FlightAware
05:21AM 35.8990 -114.1970 84° East 426 490 24,900 1,465 Climbing FlightAware
05:21AM 35.9080 -114.0960 84° East 433 498 25,800 1,390 Climbing FlightAware
05:22AM 35.9160 -113.9960 84° East 436 502 26,800 1,286 Climbing FlightAware
05:23AM 35.9160 -113.8520 90° East 444 511 27,900 1,140 Climbing FlightAware
05:24AM 35.8990 -113.7460 101° East 451 519 28,700 1,171 Climbing FlightAware
05:24AM 35.8830 -113.6440 101° East 454 522 29,500 1,357 Climbing FlightAware
05:25AM 35.8660 -113.5340 101° East 451 519 30,600 1,500 Climbing FlightAware
05:26AM 35.8500 -113.4340 101° East 446 513 31,600 1,214 Climbing FlightAware
05:26AM 35.8320 -113.3240 101° East 452 520 32,300 1,071 Climbing FlightAware
05:27AM 35.8110 -113.2230 104° East 453 521 33,100 1,538 Climbing FlightAware
05:28AM 35.7880 -113.1330 107° East 439 505 34,300 1,326 Climbing FlightAware
05:29AM 35.7610 -113.0180 106° East 433 498 35,000 488 Climbing FlightAware
05:29AM 35.7390 -112.9280 107° East 432 497 35,000  Level FlightAware
05:30AM 35.7060 -112.7860 106° East 433 498 35,000  Level FlightAware
05:31AM 35.6820 -112.6890 107° East 433 498 35,000  Level FlightAware
05:32AM 35.6590 -112.5930 106° East 432 497 35,000  Level FlightAware
05:32AM 35.6350 -112.4910 106° East 429 494 35,000  Level FlightAware
05:33AM 35.6120 -112.3970 107° East 429 494 35,000  Level FlightAware
05:34AM 35.5880 -112.2980 107° East 431 496 35,000  Level FlightAware
05:34AM 35.5630 -112.1990 107° East 433 498 35,000  Level FlightAware
05:35AM 35.5410 -112.1100 107° East 433 498 35,000  Level FlightAware
05:36AM 35.5180 -112.0150 107° East 435 501 35,000  Level FlightAware
05:36AM 35.4890 -111.8970 107° East 433 498 35,000  Level FlightAware
05:37AM 35.4670 -111.8070 107° East 432 497 35,000  Level FlightAware
05:38AM 35.4410 -111.7050 107° East 431 496 35,000  Level FlightAware
05:39AM 35.4180 -111.6120 107° East 431 496 35,000  Level FlightAware
05:39AM 35.3940 -111.5140 107° East 431 496 35,000  Level FlightAware
05:40AM 35.3680 -111.4110 107° East 431 496 35,000  Level FlightAware
05:41AM 35.3450 -111.3200 107° East 430 495 35,000  Level FlightAware
05:41AM 35.3180 -111.2160 108° East 431 496 35,000  Level FlightAware
05:42AM 35.2930 -111.1190 107° East 434 499 35,000  Level FlightAware
05:43AM 35.2690 -111.0250 107° East 437 503 35,000  Level FlightAware
05:43AM 35.2420 -110.9170 107° East 438 504 35,000  Level FlightAware
05:44AM 35.2170 -110.8220 108° East 438 504 35,000  Level FlightAware
05:45AM 35.1942 -110.7361 108° East 437 503 35,000  Level Albuquerque Center
05:46AM 35.1531 -110.5783 108° East 437 503 35,000  Level Albuquerque Center
05:47AM 35.1169 -110.4422 108° East 439 505 35,000  Level Albuquerque Center
05:48AM 35.0819 -110.3083 108° East 437 503 35,000  Level Albuquerque Center
05:54AM 34.9060 -109.6430 108° East 436 502 35,000  Level FlightAware
05:54AM 34.8470 -109.4240 108° East 439 505 35,000  Level FlightAware
05:55AM 34.8090 -109.2890 109° East 441 507 35,000  Level FlightAware
05:56AM 34.7820 -109.1900 108° East 440 506 35,000  Level FlightAware
05:57AM 34.7540 -109.0880 108° East 440 506 35,000  Level FlightAware
05:57AM 34.7300 -109.0000 108° East 441 507 35,000  Level FlightAware
05:58AM 34.7080 -108.9180 108° East 442 509 35,000  Level FlightAware
05:59AM 34.6830 -108.8240 108° East 442 509 35,000  Level FlightAware
05:59AM 34.6580 -108.7310 108° East 442 509 35,000  Level FlightAware
06:00AM 34.6330 -108.6390 108° East 442 509 35,000  Level FlightAware
06:01AM 34.5960 -108.4980 108° East 442 509 35,000  Level FlightAware
06:03AM 34.5510 -108.3300 108° East 442 509 35,000  Level FlightAware
06:04AM 34.5060 -108.1630 108° East 442 509 35,000  Level FlightAware
06:05AM 34.4090 -107.8610 111° Southeast 441 507 35,000  Level FlightAware
06:06AM 34.3920 -107.8030 110° East 441 507 35,000  Level FlightAware
06:07AM 34.3340 -107.6010 109° East 442 509 35,000  Level FlightAware
06:11AM 34.1830 -107.0860 109° East 437 503 35,000  Level FlightAware
06:14AM 34.0750 -106.7230 110° East 441 507 35,000  Level FlightAware
06:14AM 34.0380 -106.6010 110° East 440 506 35,000  Level FlightAware
06:15AM 34.0111 -106.5117 110° East 438 504 35,000  Level Albuquerque Center
06:21AM 33.8160 -105.8400 110° East 436 502 35,000  Level FlightAware
06:21AM 33.7930 -105.7600 109° East 436 502 35,000  Level FlightAware
06:22AM 33.7720 -105.6870 109° East 436 502 35,000  Level FlightAware
06:23AM 33.7450 -105.5920 109° East 436 502 35,000  Level FlightAware
06:23AM 33.7250 -105.5220 109° East 436 502 35,000  Level FlightAware
06:24AM 33.6980 -105.4280 109° East 436 502 35,000  Level FlightAware
06:25AM 33.6770 -105.3560 109° East 436 502 35,000 1,091 Level FlightAware
06:26AM 33.5550 -105.0447 109° East 417 480 37,000 896 Climbing Albuquerque Center
06:27AM 33.5142 -104.9142 111° Southeast 418 481 37,000 198 Level Albuquerque Center
06:28AM 33.4744 -104.7875 111° Southeast 408 470 37,400 800 Climbing Albuquerque Center
06:29AM 33.4356 -104.6644 111° Southeast 397 457 38,600 800 Climbing Albuquerque Center
06:30AM 33.3986 -104.5472 111° Southeast 402 463 39,000 198 Climbing Albuquerque Center
06:31AM 33.3592 -104.4267 111° Southeast 395 455 39,000  Level Albuquerque Center
06:32AM 33.3164 -104.2919 111° Southeast 395 455 39,000  Level Albuquerque Center
06:33AM 33.2772 -104.1714 111° Southeast 391 450 39,000  Level Albuquerque Center
06:35AM 33.2181 -103.9878 111° Southeast 397 457 39,000  Level Fort Worth Center
06:36AM 33.1789 -103.8583 110° East 402 463 39,000  Level Fort Worth Center
06:37AM 33.1311 -103.7308 114° Southeast 402 463 39,000  Level Fort Worth Center
06:38AM 33.0894 -103.6042 111° Southeast 402 463 39,000  Level Fort Worth Center
06:39AM 33.0500 -103.4750 110° East 402 463 39,000  Level Fort Worth Center
06:39AM 33.0317 -103.4236 113° Southeast 416 479 39,000  Level Albuquerque Center
06:40AM 33.0058 -103.3481 112° Southeast 407 468 39,000  Level Fort Worth Center
06:41AM 32.9619 -103.2189 112° Southeast 407 468 39,000  Level Fort Worth Center
06:42AM 32.9178 -103.0875 112° Southeast 412 474 39,000  Level Fort Worth Center
06:43AM 32.8733 -102.9611 113° Southeast 417 480 39,000  Level Fort Worth Center
06:44AM 32.8311 -102.8322 111° Southeast 417 480 39,000  Level Fort Worth Center
06:45AM 32.7864 -102.7011 112° Southeast 422 486 39,000 -581 Level Fort Worth Center
06:51AM 32.5130 -101.9110 112° Southeast 437 503 35,000 -594 Descending FlightAware
06:51AM 32.4730 -101.7970 113° Southeast 436 502 35,000  Level FlightAware
06:52AM 32.4350 -101.6900 113° Southeast 435 501 35,000  Level FlightAware
06:53AM 32.4040 -101.6030 113° Southeast 435 501 35,000  Level FlightAware
06:54AM 32.3720 -101.5110 112° Southeast 435 501 35,000  Level FlightAware
06:54AM 32.3380 -101.4150 113° Southeast 432 497 35,000  Level FlightAware
06:55AM 32.3110 -101.3410 113° Southeast 432 497 35,000  Level FlightAware
06:56AM 32.2750 -101.2390 113° Southeast 432 497 35,000  Level FlightAware
06:56AM 32.2450 -101.1540 113° Southeast 432 497 35,000  Level FlightAware
06:57AM 32.2070 -101.0500 113° Southeast 432 497 35,000  Level FlightAware
06:58AM 32.1760 -100.9630 113° Southeast 432 497 35,000  Level FlightAware
06:58AM 32.1440 -100.8750 113° Southeast 432 497 35,000  Level FlightAware
06:59AM 32.1100 -100.7790 113° Southeast 433 498 35,000  Level FlightAware
07:03AM 31.9250 -100.2740 113° Southeast 429 494 35,000  Level FlightAware
07:04AM 31.8730 -100.1330 113° Southeast 429 494 35,000  Level FlightAware
07:05AM 31.8420 -100.0510 114° Southeast 430 495 35,000  Level FlightAware
07:06AM 31.8070 -99.9580 114° Southeast 431 496 35,000  Level FlightAware
07:06AM 31.7770 -99.8770 114° Southeast 432 497 35,000  Level FlightAware
07:07AM 31.7270 -99.7430 114° Southeast 433 498 35,000  Level FlightAware
07:08AM 31.6950 -99.6600 114° Southeast 433 498 35,000  Level FlightAware
07:08AM 31.6630 -99.5760 114° Southeast 433 498 35,000  Level FlightAware
07:09AM 31.6403 -99.5162 114° Southeast 432 497 35,000  Level FlightAware ADS-B
07:10AM 31.6125 -99.4431 114° Southeast 432 497 35,000  Level FlightAware ADS-B
07:10AM 31.5782 -99.3538 114° Southeast 432 497 35,000  Level FlightAware ADS-B
07:11AM 31.5436 -99.2879 122° Southeast 435 501 35,000  Level FlightAware ADS-B
07:11AM 31.4987 -99.2339 134° Southeast 435 501 35,000  Level FlightAware ADS-B
07:12AM 31.4520 -99.1770 134° Southeast 434 499 35,000  Level FlightAware
07:13AM 31.3740 -99.0820 134° Southeast 435 501 35,000  Level FlightAware
07:14AM 31.3160 -99.0090 133° Southeast 436 502 35,000  Level FlightAware
07:14AM 31.3013 -98.9914 134° Southeast 436 502 35,000  Level FlightAware ADS-B
07:14AM 31.2594 -98.9383 133° Southeast 435 501 35,000  Level FlightAware ADS-B
07:15AM 31.2117 -98.8773 132° Southeast 437 503 35,000  Level FlightAware ADS-B
07:17AM 31.1610 -98.6640 105° East 435 501 35,000  Level FlightAware
07:17AM 31.1417 -98.5188 99° East 435 501 35,000  Level FlightAware ADS-B
07:18AM 31.1303 -98.4310 99° East 435 501 35,000  Level FlightAware ADS-B
07:19AM 31.1201 -98.3537 99° East 435 501 35,000  Level FlightAware ADS-B
07:19AM 31.1109 -98.2833 99° East 435 501 35,000  Level FlightAware ADS-B
07:20AM 31.1015 -98.2123 99° East 434 499 35,000  Level FlightAware ADS-B
07:20AM 31.0917 -98.1385 99° East 433 498 35,000  Level FlightAware ADS-B
07:21AM 31.0810 -98.0560 99° East 433 498 35,000  Level FlightAware
07:21AM 31.0775 -98.0319 100° East 433 498 35,000  Level FlightAware ADS-B
07:21AM 31.0672 -97.9556 99° East 432 497 35,000  Level FlightAware ADS-B
07:22AM 31.0578 -97.8860 99° East 431 496 35,000  Level FlightAware ADS-B
07:22AM 31.0483 -97.8165 99° East 431 496 35,000  Level FlightAware ADS-B
07:23AM 31.0390 -97.7478 99° East 432 497 35,000  Level FlightAware ADS-B
07:23AM 31.0295 -97.6771 99° East 433 498 35,000  Level FlightAware ADS-B
07:24AM 31.0229 -97.6333 100° East 435 501 35,000 -207 Level FlightAware ADS-B
07:24AM 31.0174 -97.6126 107° East 434 499 34,900 -800 Descending FlightAware ADS-B
07:24AM 31.0130 -97.6005 113° Southeast 434 499 34,800 -1,714 Descending FlightAware ADS-B
07:24AM 31.0044 -97.5820 118° Southeast 435 501 34,500 -2,615 Descending FlightAware ADS-B
07:25AM 30.9720 -97.5210 122° Southeast 439 505 33,100 -3,194 Descending FlightAware ADS-B
07:25AM 30.9393 -97.4587 121° Southeast 451 519 31,200 -3,524 Descending FlightAware ADS-B
07:26AM 30.9043 -97.3910 121° Southeast 456 525 29,400 -3,387 Descending FlightAware ADS-B
07:26AM 30.8710 -97.3269 121° Southeast 459 528 27,700 -3,300 Descending FlightAware ADS-B
07:27AM 30.8375 -97.2630 121° Southeast 460 529 26,100 -2,754 Descending FlightAware ADS-B
07:27AM 30.8039 -97.1990 121° Southeast 454 522 24,900 -2,419 Descending FlightAware ADS-B
07:28AM 30.7704 -97.1350 121° Southeast 444 511 23,600 -2,381 Descending FlightAware ADS-B
07:28AM 30.7372 -97.0714 121° Southeast 435 501 22,400 -2,226 Descending FlightAware ADS-B
07:29AM 30.7057 -97.0113 121° Southeast 424 488 21,300 -2,262 Descending FlightAware ADS-B
07:29AM 30.6747 -96.9527 122° Southeast 416 479 20,100 -2,656 Descending FlightAware ADS-B
07:30AM 30.6441 -96.8948 122° Southeast 418 481 18,600 -2,806 Descending FlightAware ADS-B
07:30AM 30.6121 -96.8345 122° Southeast 410 472 17,200 -2,516 Descending FlightAware ADS-B
07:31AM 30.5823 -96.7789 122° Southeast 403 464 16,000 -2,361 Descending FlightAware ADS-B
07:31AM 30.5526 -96.7226 121° Southeast 394 453 14,800 -2,066 Descending FlightAware ADS-B
07:32AM 30.5246 -96.6697 122° Southeast 378 435 13,900 -2,300 Descending FlightAware ADS-B
07:32AM 30.4971 -96.6178 122° Southeast 378 435 12,500 -2,700 Descending FlightAware ADS-B
07:33AM 30.4696 -96.5665 122° Southeast 373 429 11,200 -2,449 Descending FlightAware ADS-B
07:33AM 30.4528 -96.5348 122° Southeast 369 425 10,500 -2,000 Descending FlightAware ADS-B
07:33AM 30.4490 -96.5260 117° Southeast 366 421 10,400 -1,333 Descending FlightAware ADS-B
07:33AM 30.4469 -96.5193 110° East 361 415 10,300 -1,333 Descending FlightAware ADS-B
07:33AM 30.4448 -96.5099 105° East 357 411 10,200 -1,200 Descending FlightAware ADS-B
07:34AM 30.4438 -96.5005 97° East 350 403 10,100 -667 Descending FlightAware ADS-B
07:34AM 30.4438 -96.4931 90° East 346 398 10,100 -667 Level FlightAware ADS-B
07:34AM 30.4446 -96.4847 84° East 342 394 10,000 -667 Descending FlightAware ADS-B
07:34AM 30.4463 -96.4761 77° East 336 387 10,000  Level FlightAware ADS-B
07:34AM 30.4488 -96.4684 69° East 334 384 10,000  Level FlightAware ADS-B
07:34AM 30.4591 -96.4426 65° Northeast 334 384 10,000  Level FlightAware ADS-B
07:34AM 30.4694 -96.4180 64° Northeast 335 386 10,000  Level FlightAware ADS-B
07:35AM 30.4800 -96.3929 64° Northeast 334 384 10,000  Level FlightAware ADS-B
07:35AM 30.4902 -96.3681 64° Northeast 333 383 10,000  Level FlightAware ADS-B
07:35AM 30.5023 -96.3386 65° Northeast 333 383 10,000  Level FlightAware ADS-B
07:35AM 30.5122 -96.3143 65° Northeast 333 383 10,000  Level FlightAware ADS-B
07:36AM 30.5325 -96.2642 65° Northeast 332 382 10,000  Level FlightAware ADS-B
07:36AM 30.5468 -96.2285 65° Northeast 335 386 10,000  Level FlightAware ADS-B
07:36AM 30.5504 -96.2149 76° East 335 386 10,000  Level FlightAware ADS-B
07:36AM 30.5513 -96.2078 82° East 336 387 10,000  Level FlightAware ADS-B
07:37AM 30.5515 -96.2001 88° East 336 387 10,000  Level FlightAware ADS-B
07:37AM 30.5498 -96.1847 97° East 339 390 10,000  Level FlightAware ADS-B
07:37AM 30.5484 -96.1789 106° East 339 390 10,000  Level FlightAware ADS-B
07:37AM 30.5407 -96.1526 109° East 340 391 10,000  Level FlightAware ADS-B
07:37AM 30.5328 -96.1263 109° East 339 390 10,000  Level FlightAware ADS-B
07:38AM 30.5247 -96.0994 109° East 339 390 10,000  Level FlightAware ADS-B
07:39AM 30.4853 -95.9688 109° East 339 390 10,000  Level FlightAware ADS-B
07:40AM 30.4573 -95.8764 109° East 338 389 10,000  Level FlightAware ADS-B
07:40AM 30.4491 -95.8590 125° Southeast 340 391 10,000  Level FlightAware ADS-B
07:40AM 30.4404 -95.8478 134° Southeast 340 391 10,000  Level FlightAware ADS-B
07:40AM 30.4086 -95.8144 138° Southeast 341 392 10,000  Level FlightAware ADS-B
07:42AM 30.3348 -95.7383 138° Southeast 344 396 10,000  Level FlightAware ADS-B
07:42AM 30.3166 -95.7193 138° Southeast 344 396 10,000 -336 Level FlightAware ADS-B
07:43AM 30.2161 -95.6146 138° Southeast 291 335 9,400 -634 Descending FlightAware ADS-B
07:44AM 30.1856 -95.5827 138° Southeast 287 330 8,700 -1,462 Descending FlightAware ADS-B
07:45AM 30.1387 -95.5339 138° Southeast 286 329 7,500 -1,500 Descending FlightAware ADS-B
07:45AM 30.1186 -95.5126 137° Southeast 284 327 7,000 -1,200 Descending FlightAware ADS-B
07:45AM 30.1154 -95.5086 133° Southeast 283 326 7,000  Level FlightAware ADS-B
07:45AM 30.1060 -95.4777 93° East 282 325 7,000  Level FlightAware ADS-B
07:46AM 30.1060 -95.4549 90° East 282 325 7,000  Level FlightAware ADS-B
07:46AM 30.1062 -95.4319 89° East 282 325 7,000  Level FlightAware ADS-B
07:46AM 30.1063 -95.4077 90° East 282 325 7,000  Level FlightAware ADS-B
07:47AM 30.1064 -95.3611 90° East 281 323 7,000 -132 Level FlightAware ADS-B
07:48AM 30.1064 -95.2705 90° East 277 319 6,800 -744 Descending FlightAware ADS-B
07:49AM 30.1061 -95.1817 90° East 259 298 5,500 -1,129 Descending FlightAware ADS-B
07:49AM 30.1059 -95.1513 91° East 234 269 5,200 -857 Descending FlightAware ADS-B
07:49AM 30.1052 -95.1457 98° East 233 268 5,100 -1,636 Descending FlightAware ADS-B
07:49AM 30.1028 -95.1379 113° Southeast 231 266 4,900 -1,714 Descending FlightAware ADS-B
07:49AM 30.0986 -95.1308 128° Southeast 230 265 4,700 -1,714 Descending FlightAware ADS-B
07:50AM 30.0927 -95.1250 142° Southeast 231 266 4,500 -1,680 Descending FlightAware ADS-B
07:50AM 30.0747 -95.1199 179° South 228 262 4,000 -1,826 Descending FlightAware ADS-B
07:50AM 30.0699 -95.1200 181° South 226 260 3,800 -1,333 Descending FlightAware ADS-B
07:50AM 30.0564 -95.1207 183° South 219 252 3,600 -1,317 Descending FlightAware ADS-B
07:51AM 30.0282 -95.1217 182° South 213 245 2,900 -1,455 Descending FlightAware ADS-B
07:51AM 30.0234 -95.1228 191° South 211 243 2,800 -1,200 Descending FlightAware ADS-B
07:51AM 30.0150 -95.1282 216° Southwest 201 231 2,600 -857 Descending FlightAware ADS-B
07:51AM 30.0129 -95.1306 225° Southwest 199 229 2,600 -720 Level FlightAware ADS-B
07:51AM 30.0011 -95.1480 233° Southwest 185 213 2,300 -774 Descending FlightAware ADS-B
07:51AM 29.9964 -95.1562 237° Southwest 182 209 2,200 -400 Descending FlightAware ADS-B
07:52AM 29.9951 -95.1600 248° West 182 209 2,200 -667 Level FlightAware ADS-B
07:52AM 29.9944 -95.1637 258° West 181 208 2,100 -1,000 Descending FlightAware ADS-B
07:52AM 29.9938 -95.1719 265° West 180 207 2,000 -240 Descending FlightAware ADS-B
07:52AM 29.9935 -95.1878 269° West 177 204 2,000  Level FlightAware ADS-B
07:52AM 29.9935 -95.2071 270° West 175 201 2,000 -353 Level FlightAware ADS-B
07:53AM 29.9934 -95.2195 269° West 177 204 1,800 -889 Descending FlightAware ADS-B
07:53AM 29.9935 -95.2330 270° West 173 199 1,600 -1,000 Descending FlightAware ADS-B
07:53AM 29.9934 -95.2418 269° West 164 189 1,400 -960 Descending FlightAware ADS-B
07:53AM 29.9934 -95.2543 270° West 153 176 1,200 -750 Descending FlightAware ADS-B
07:53AM 29.9934 -95.2667 270° West 133 153 1,000 -500 Descending FlightAware ADS-B
07:54AM 29.9934 -95.2717 270° West 126 145 1,000 -400 Level FlightAware ADS-B
07:54AM 29.9935 -95.2770 271° West 124 143 900 -818 Descending FlightAware ADS-B
07:54AM 29.9934 -95.2864 269° West 122 140 700 -857 Descending FlightAware ADS-B
07:54AM 29.9934 -95.2909 270° West 123 142 600 -632 Descending FlightAware ADS-B
07:54AM 29.9934 -95.2986 270° West 125 144 500 -480 Descending FlightAware ADS-B
07:55AM 29.9934 -95.3070 270° West 125 144 400 -600 Descending FlightAware ADS-B
07:55AM 29.9934 -95.3118 270° West 125 144 300 -800 Descending FlightAware ADS-B
07:55AM 29.9934 -95.3174 270° West 123 142 200 -750 Descending FlightAware ADS-B
07:55AM 29.9934 -95.3226 270° West 124 143 100 -750 Descending FlightAware ADS-B